Time;durP1;ratioP1;P1;durP2;ratioP2;P2;SDS_P1;SDS_P2;PMS_P1;PMS_P2;Temp;Humidity;BMP_temperature;BMP_pressure;BME280_temperature;BME280_humidity;BME280_pressure;Samples;Min_cycle;Max_cycle;Signal;HPM_P1;HPM_P2
2022/12/26 00:04:00;;;;;;;37.6;26.9;;;;;;;3.1;89.6;98950;;;;
2022/12/26 00:15:00;;;;;;;36.6;23.6;;;;;;;3.2;89.6;98930;;;;
2022/12/26 00:25:00;;;;;;;36.6;23.6;;;;;;;3.1;89.3;98880;;;;
2022/12/26 00:36:00;;;;;;;36.6;23.6;;;;;;;3.1;89.1;98870;;;;
2022/12/26 00:47:00;;;;;;;34.4;22.3;;;;;;;2.9;88.5;98870;;;;
2022/12/26 00:57:00;;;;;;;34.4;22.3;;;;;;;2.9;89;98870;;;;
2022/12/26 01:07:00;;;;;;;34.4;22.3;;;;;;;2.8;89;98860;;;;
2022/12/26 01:18:00;;;;;;;31.7;22;;;;;;;2.7;89.4;98840;;;;
2022/12/26 01:28:00;;;;;;;31.7;22;;;;;;;2.9;89.6;98860;;;;
2022/12/26 01:39:00;;;;;;;34.5;20.8;;;;;;;2.9;89.6;98850;;;;
2022/12/26 01:50:00;;;;;;;34.5;20.8;;;;;;;3;89.8;98850;;;;
2022/12/26 02:00:00;;;;;;;34.5;20.8;;;;;;;3.1;89.9;98840;;;;
2022/12/26 02:11:00;;;;;;;32.9;21.6;;;;;;;3.3;90.1;98830;;;;
2022/12/26 02:22:00;;;;;;;32.9;21.6;;;;;;;3.3;90.3;98810;;;;
2022/12/26 02:32:00;;;;;;;32.9;21.6;;;;;;;3.4;90.4;98810;;;;
2022/12/26 02:43:01;;;;;;;35.1;24.1;;;;;;;3.5;90.2;98790;;;;
2022/12/26 03:15:00;;;;;;;31.2;23.5;;;;;;;3.5;89.2;98710;;;;
2022/12/26 03:27:04;;;;;;;31.2;23.5;;;;;;;3.4;88.8;98740;;;;
2022/12/26 03:36:00;;;;;;;31.2;23.5;;;;;;;3.1;89.3;98740;;;;
2022/12/26 04:20:00;;;;;;;24.8;16.6;;;;;;;2.9;90.1;98710;;;;
2022/12/26 04:52:02;;;;;;;29;16.8;;;;;;;2.9;89.8;98660;;;;
2022/12/26 05:14:00;;;;;;;26.6;17;;;;;;;3;89.5;98670;;;;
2022/12/26 05:34:09;;;;;;;26.6;17;;;;;;;2.7;88.7;98680;;;;
2022/12/26 05:45:00;;;;;;;31.9;20.7;;;;;;;2.4;88.6;98690;;;;
2022/12/26 05:56:00;;;;;;;31.9;20.7;;;;;;;2.3;88.5;98690;;;;
2022/12/26 06:07:00;;;;;;;31.9;20.7;;;;;;;2.1;88.7;98690;;;;
2022/12/26 06:18:00;;;;;;;31.7;19.4;;;;;;;2;88.9;98720;;;;
2022/12/26 06:29:00;;;;;;;31.7;19.4;;;;;;;2;89.5;98720;;;;
2022/12/26 06:39:00;;;;;;;49.3;28.7;;;;;;;2;89.8;98710;;;;
2022/12/26 06:50:00;;;;;;;49.3;28.7;;;;;;;2.2;91.5;98710;;;;
2022/12/26 07:00:00;;;;;;;49.3;28.7;;;;;;;2.3;91.5;98740;;;;
2022/12/26 07:11:02;;;;;;;36.9;24.4;;;;;;;2.3;91.3;98750;;;;
2022/12/26 07:22:00;;;;;;;36.9;24.4;;;;;;;2.4;91;98740;;;;
2022/12/26 07:32:00;;;;;;;36.9;24.4;;;;;;;2.9;91.5;98720;;;;
2022/12/26 07:43:01;;;;;;;33.2;23.5;;;;;;;3.5;91.9;98710;;;;
2022/12/26 07:53:00;;;;;;;33.2;23.5;;;;;;;4;92.2;98720;;;;
2022/12/26 08:04:02;;;;;;;33.2;23.5;;;;;;;4.4;92.2;98740;;;;
2022/12/26 08:15:00;;;;;;;34;25.9;;;;;;;4.8;91.9;98740;;;;
2022/12/26 08:26:00;;;;;;;34;25.9;;;;;;;5.3;91.5;98750;;;;
2022/12/26 08:36:00;;;;;;;34;25.9;;;;;;;5.6;90.5;98760;;;;
2022/12/26 08:47:00;;;;;;;44.6;36.4;;;;;;;6;89.3;98770;;;;
2022/12/26 08:57:00;;;;;;;44.6;36.4;;;;;;;6.1;88;98780;;;;
2022/12/26 09:07:00;;;;;;;44.6;36.4;;;;;;;6.1;86.9;98780;;;;
2022/12/26 09:17:00;;;;;;;46.8;38;;;;;;;6.2;86.8;98770;;;;
2022/12/26 09:27:00;;;;;;;46.8;38;;;;;;;6.6;86.8;98770;;;;
2022/12/26 09:37:00;;;;;;;46.8;38;;;;;;;7;86.5;98750;;;;
2022/12/26 09:48:00;;;;;;;38.7;32.8;;;;;;;7.6;86.3;98760;;;;
2022/12/26 09:59:00;;;;;;;38.7;32.8;;;;;;;7.9;84.6;98750;;;;
2022/12/26 10:10:00;;;;;;;35.1;29.6;;;;;;;7.8;84.4;98750;;;;
2022/12/26 10:20:00;;;;;;;35.1;29.6;;;;;;;8.2;84.7;98760;;;;
2022/12/26 10:31:00;;;;;;;35.1;29.6;;;;;;;8.7;83.4;98730;;;;
2022/12/26 10:41:00;;;;;;;42.1;33.6;;;;;;;9.1;83.2;98720;;;;
2022/12/26 10:51:00;;;;;;;42.1;33.6;;;;;;;9.6;83.2;98700;;;;
2022/12/26 11:01:00;;;;;;;42.1;33.6;;;;;;;9.9;83.1;98690;;;;
2022/12/26 11:12:00;;;;;;;36.4;32.5;;;;;;;10.3;82.9;98670;;;;
2022/12/26 11:23:00;;;;;;;36.4;32.5;;;;;;;10.8;82;98660;;;;
2022/12/26 11:33:00;;;;;;;36.4;32.5;;;;;;;11.4;80.3;98680;;;;
2022/12/26 11:44:00;;;;;;;36.6;32.8;;;;;;;11.3;79.4;98670;;;;
2022/12/26 11:54:00;;;;;;;36.6;32.8;;;;;;;11.1;78.8;98660;;;;
2022/12/26 12:05:00;;;;;;;36.6;32.8;;;;;;;11;78;98650;;;;
2022/12/26 12:15:00;;;;;;;46.6;41.7;;;;;;;11.2;78.1;98630;;;;
2022/12/26 12:26:00;;;;;;;46.6;41.7;;;;;;;11.6;77.2;98620;;;;
2022/12/26 12:36:00;;;;;;;46.6;41.7;;;;;;;12;76;98620;;;;
2022/12/26 12:47:00;;;;;;;8.7;5.6;;;;;;;11.9;75.9;98620;;;;
2022/12/26 12:58:00;;;;;;;8.7;5.6;;;;;;;11.9;75.9;98610;;;;
2022/12/26 13:08:00;;;;;;;11.8;6.8;;;;;;;11.8;76;98600;;;;
2022/12/26 13:19:00;;;;;;;11.8;6.8;;;;;;;11.8;75.7;98600;;;;
2022/12/26 13:30:00;;;;;;;11.8;6.8;;;;;;;11.6;75.6;98600;;;;
2022/12/26 13:40:01;;;;;;;7.7;5.3;;;;;;;11.4;76;98630;;;;
2022/12/26 13:50:00;;;;;;;7.7;5.3;;;;;;;11.2;76.3;98630;;;;
2022/12/26 14:01:00;;;;;;;7.7;5.3;;;;;;;11;76.8;98640;;;;
2022/12/26 14:12:00;;;;;;;8.3;5.6;;;;;;;10.9;77.1;98620;;;;
2022/12/26 14:22:00;;;;;;;8.3;5.6;;;;;;;10.8;77.1;98630;;;;
2022/12/26 14:33:00;;;;;;;8.3;5.6;;;;;;;10.5;77.8;98620;;;;
2022/12/26 14:43:16;;;;;;;9.8;6.2;;;;;;;10.4;78.3;98610;;;;
2022/12/26 14:54:00;;;;;;;9.8;6.2;;;;;;;10.3;78.5;98640;;;;
2022/12/26 15:05:00;;;;;;;9.8;6.2;;;;;;;10;79.1;98650;;;;
2022/12/26 15:15:01;;;;;;;34.5;30.5;;;;;;;9.8;79.5;98650;;;;
2022/12/26 15:26:01;;;;;;;34.5;30.5;;;;;;;9.6;80.3;98640;;;;
2022/12/26 15:37:00;;;;;;;40;32.3;;;;;;;9.4;81.4;98630;;;;
2022/12/26 15:47:01;;;;;;;40;32.3;;;;;;;9.3;81.9;98620;;;;
2022/12/26 15:58:00;;;;;;;40;32.3;;;;;;;9.2;82.2;98620;;;;
2022/12/26 16:08:00;;;;;;;31.8;26.9;;;;;;;9.2;82.3;98620;;;;
2022/12/26 16:19:01;;;;;;;31.8;26.9;;;;;;;9;82.5;98610;;;;
2022/12/26 16:30:02;;;;;;;31.8;26.9;;;;;;;9;83.2;98610;;;;
2022/12/26 16:41:00;;;;;;;28.5;24.6;;;;;;;9.1;83.4;98600;;;;
2022/12/26 16:51:00;;;;;;;28.5;24.6;;;;;;;9.5;81.9;98610;;;;
2022/12/26 17:02:00;;;;;;;28.5;24.6;;;;;;;9.9;81;98640;;;;
2022/12/26 17:12:03;;;;;;;10.5;8.3;;;;;;;10;81;98650;;;;
2022/12/26 17:23:00;;;;;;;10.5;8.3;;;;;;;10;81.9;98690;;;;
2022/12/26 17:33:01;;;;;;;10.5;8.3;;;;;;;9.8;83.5;98700;;;;
2022/12/26 17:44:00;;;;;;;20.2;16.8;;;;;;;9.7;85.6;98680;;;;
2022/12/26 17:54:00;;;;;;;20.2;16.8;;;;;;;9.5;87.7;98630;;;;
2022/12/26 18:05:00;;;;;;;20.2;16.8;;;;;;;9.3;88.4;98610;;;;
2022/12/26 18:16:01;;;;;;;11.8;8.9;;;;;;;9.3;87.9;98600;;;;
2022/12/26 18:26:01;;;;;;;11.8;8.9;;;;;;;9.2;87.4;98570;;;;
2022/12/26 18:37:00;;;;;;;24;15.4;;;;;;;9.3;86.5;98600;;;;
2022/12/26 18:47:00;;;;;;;24;15.4;;;;;;;9.5;85.9;98640;;;;
2022/12/26 18:58:00;;;;;;;24;15.4;;;;;;;9.4;85.8;98630;;;;
2022/12/26 19:09:00;;;;;;;12.1;8.1;;;;;;;9.4;85.5;98610;;;;
2022/12/26 19:19:00;;;;;;;12.1;8.1;;;;;;;9.5;85.3;98620;;;;
2022/12/26 19:30:00;;;;;;;12.1;8.1;;;;;;;9.5;84.9;98630;;;;
2022/12/26 19:41:01;;;;;;;11.9;7.6;;;;;;;9.4;84.8;98660;;;;
2022/12/26 19:52:00;;;;;;;11.9;7.6;;;;;;;9.1;84.9;98680;;;;
2022/12/26 20:03:00;;;;;;;11.9;7.6;;;;;;;9;85.2;98670;;;;
2022/12/26 20:13:00;;;;;;;11.9;10;;;;;;;8.8;85.3;98670;;;;
2022/12/26 20:24:01;;;;;;;11.9;10;;;;;;;8.7;85.8;98680;;;;
2022/12/26 20:34:01;;;;;;;11.9;10;;;;;;;8.9;85.6;98680;;;;
2022/12/26 20:44:01;;;;;;;9;7.1;;;;;;;9;85;98670;;;;
2022/12/26 20:55:00;;;;;;;9;7.1;;;;;;;9.1;84.5;98680;;;;
2022/12/26 21:05:00;;;;;;;9;7.1;;;;;;;9.1;84.3;98710;;;;
2022/12/26 21:15:01;;;;;;;11.5;8;;;;;;;9.2;84;98710;;;;
2022/12/26 21:26:00;;;;;;;11.5;8;;;;;;;9.3;83.7;98720;;;;
2022/12/26 21:36:01;;;;;;;11.5;8;;;;;;;9.3;83.4;98730;;;;
2022/12/26 21:47:01;;;;;;;8.4;6.6;;;;;;;9.4;83;98730;;;;
2022/12/26 21:58:02;;;;;;;8.4;6.6;;;;;;;9.6;82.6;98740;;;;
2022/12/26 22:09:00;;;;;;;9.6;6.8;;;;;;;9.4;82.9;98730;;;;
2022/12/26 22:19:01;;;;;;;9.6;6.8;;;;;;;9.3;83.1;98720;;;;
2022/12/26 22:30:01;;;;;;;9.6;6.8;;;;;;;9.3;83.2;98720;;;;
2022/12/26 22:40:01;;;;;;;13.1;10.5;;;;;;;9;84.3;98710;;;;
2022/12/26 22:51:01;;;;;;;13.1;10.5;;;;;;;8.9;84.8;98710;;;;
2022/12/26 23:02:01;;;;;;;13.1;10.5;;;;;;;9;84.9;98720;;;;
2022/12/26 23:13:01;;;;;;;12.5;9.5;;;;;;;9;84.6;98710;;;;
2022/12/26 23:24:01;;;;;;;12.5;9.5;;;;;;;9;84.5;98700;;;;
2022/12/26 23:34:00;;;;;;;12.5;9.5;;;;;;;9;84.3;98690;;;;
2022/12/26 23:45:01;;;;;;;11.2;6.8;;;;;;;9;84.1;98670;;;;
2022/12/26 23:56:00;;;;;;;11.2;6.8;;;;;;;9.1;83.9;98670;;;;
